Time;durP1;ratioP1;P1;durP2;ratioP2;P2;SDS_P1;SDS_P2;PMS_P1;PMS_P2;Temp;Humidity;BMP_temperature;BMP_pressure;BME280_temperature;BME280_humidity;BME280_pressure;Samples;Min_cycle;Max_cycle;Signal;HPM_P1;HPM_P2
2022/03/08 00:00:37;;;;;;;66.05;33.28;;;26.50;2201.60;;;;;;5070222;28;20029;-59
2022/03/08 00:03:04;;;;;;;57.88;29.77;;;26.50;2201.60;;;;;;5070055;28;20036;-56
2022/03/08 00:05:30;;;;;;;63.47;34.92;;;26.50;2201.60;;;;;;5070041;28;20066;-57
2022/03/08 00:07:57;;;;;;;58.30;32.13;;;51.20;2227.20;;;;;;5070093;28;20397;-58
2022/03/08 00:10:23;;;;;;;57.80;30.83;;;26.50;2201.60;;;;;;5069982;28;20165;-57
2022/03/08 00:12:49;;;;;;;61.10;33.30;;;26.40;2201.60;;;;;;5070182;28;20037;-56
2022/03/08 00:15:18;;;;;;;61.30;35.00;;;26.30;2201.60;;;;;;5070068;28;20021;-59
2022/03/08 00:17:44;;;;;;;56.75;31.90;;;26.40;2201.60;;;;;;5070039;28;20121;-56
2022/03/08 00:20:12;;;;;;;57.60;31.63;;;26.40;2201.60;;;;;;5069926;28;20475;-56
2022/03/08 00:22:38;;;;;;;60.38;32.28;;;26.30;2201.60;;;;;;5069906;28;20033;-57
2022/03/08 00:25:05;;;;;;;65.70;30.67;;;26.20;2201.60;;;;;;5069906;28;20032;-57
2022/03/08 00:27:31;;;;;;;54.03;29.35;;;26.10;2201.60;;;;;;5069695;28;20025;-57
2022/03/08 00:29:57;;;;;;;55.25;30.75;;;26.20;2201.60;;;;;;5069742;28;20155;-56
2022/03/08 00:32:23;;;;;;;60.10;32.47;;;26.20;2201.60;;;;;;5069749;28;20043;-56
2022/03/08 00:34:49;;;;;;;57.38;30.33;;;26.20;2201.60;;;;;;5069836;28;20024;-56
2022/03/08 00:37:15;;;;;;;59.83;34.80;;;26.30;2201.60;;;;;;5069518;28;20519;-61
2022/03/08 00:39:41;;;;;;;57.65;34.58;;;26.20;2201.60;;;;;;5069525;28;20036;-57
2022/03/08 00:42:11;;;;;;;60.70;32.95;;;26.20;2201.60;;;;;;5069994;28;20033;-56
2022/03/08 00:44:42;;;;;;;55.90;30.73;;;26.30;2201.60;;;;;;5069863;28;20416;-58
2022/03/08 00:47:09;;;;;;;54.08;30.50;;;26.10;2201.60;;;;;;5069625;28;20116;-60
2022/03/08 00:49:36;;;;;;;61.63;34.30;;;26.20;2201.60;;;;;;5069403;28;20029;-60
2022/03/08 00:52:02;;;;;;;61.78;33.40;;;26.10;2201.60;;;;;;5069550;28;20116;-61
2022/03/08 00:54:28;;;;;;;51.42;29.65;;;26.10;2201.60;;;;;;5071323;28;20020;-56
2022/03/08 00:56:54;;;;;;;57.13;31.27;;;26.10;2201.60;;;;;;5073109;28;20074;-57
2022/03/08 00:59:19;;;;;;;63.28;35.63;;;25.90;2201.60;;;;;;5073623;28;20124;-59
2022/03/08 01:01:45;;;;;;;60.15;33.63;;;25.90;2201.60;;;;;;5073496;28;20348;-61
2022/03/08 01:04:11;;;;;;;54.90;30.75;;;26.00;2201.60;;;;;;5073220;28;20020;-57
2022/03/08 01:06:37;;;;;;;55.60;32.67;;;26.20;2201.60;;;;;;5073245;28;20150;-61
2022/03/08 01:09:03;;;;;;;60.38;31.23;;;26.20;2201.60;;;;;;5073087;28;20078;-55
2022/03/08 01:11:29;;;;;;;59.97;32.05;;;26.10;2201.60;;;;;;5073023;28;20097;-57
2022/03/08 01:13:55;;;;;;;57.70;32.13;;;26.20;2201.60;;;;;;5072951;28;20067;-56
2022/03/08 01:16:21;;;;;;;61.00;34.63;;;26.20;2201.60;;;;;;5073002;28;20028;-56
2022/03/08 01:18:48;;;;;;;59.63;31.30;;;26.30;2201.60;;;;;;5073136;28;20119;-56
2022/03/08 01:21:14;;;;;;;63.22;33.42;;;26.10;2201.60;;;;;;5072967;28;20467;-56
2022/03/08 01:23:41;;;;;;;60.30;33.33;;;26.10;2201.60;;;;;;5073033;28;20028;-56
2022/03/08 01:26:07;;;;;;;64.90;34.10;;;26.20;2201.60;;;;;;5073005;28;20056;-57
2022/03/08 01:28:34;;;;;;;62.30;32.10;;;26.20;2201.60;;;;;;5072577;28;20090;-59
2022/03/08 01:31:00;;;;;;;56.30;30.75;;;26.40;2201.60;;;;;;5072548;28;20449;-62
2022/03/08 01:33:26;;;;;;;67.13;33.78;;;26.20;2201.60;;;;;;5072508;28;20479;-57
2022/03/08 01:35:51;;;;;;;62.28;31.73;;;26.30;2201.60;;;;;;5072592;28;20075;-57
2022/03/08 01:38:17;;;;;;;56.45;31.55;;;26.00;2201.60;;;;;;5072790;28;20082;-59
2022/03/08 01:40:43;;;;;;;55.17;29.25;;;26.10;2201.60;;;;;;5071046;28;20082;-57
2022/03/08 01:43:09;;;;;;;56.15;32.70;;;26.00;2201.60;;;;;;5072944;28;20024;-56
2022/03/08 01:45:35;;;;;;;72.22;36.78;;;25.90;2201.60;;;;;;5072605;28;20032;-61
2022/03/08 01:48:01;;;;;;;65.55;37.50;;;25.90;2201.60;;;;;;5072453;28;20482;-56
2022/03/08 01:50:27;;;;;;;68.68;35.63;;;26.10;2201.60;;;;;;5072416;28;20082;-56
2022/03/08 01:52:54;;;;;;;65.22;32.78;;;26.00;2201.60;;;;;;5072191;28;20075;-57
2022/03/08 01:55:20;;;;;;;62.17;32.97;;;25.90;2201.60;;;;;;5072462;28;20048;-57
2022/03/08 01:57:48;;;;;;;62.40;34.00;;;26.00;2201.60;;;;;;5072242;28;20039;-61
2022/03/08 02:00:17;;;;;;;67.65;35.97;;;26.00;2201.60;;;;;;5072207;28;20021;-56
2022/03/08 02:02:43;;;;;;;54.35;29.45;;;25.90;2201.60;;;;;;5072246;28;20020;-57
2022/03/08 02:05:10;;;;;;;59.35;31.20;;;26.00;2201.60;;;;;;5071971;28;20029;-57
2022/03/08 02:07:36;;;;;;;59.20;32.08;;;26.20;2201.60;;;;;;5072009;28;20072;-61
2022/03/08 02:10:03;;;;;;;64.43;34.33;;;26.20;2201.60;;;;;;5071905;28;20062;-57
2022/03/08 02:12:29;;;;;;;64.95;34.08;;;26.30;2201.60;;;;;;5072106;28;20494;-56
2022/03/08 02:14:54;;;;;;;57.90;33.28;;;26.30;2201.60;;;;;;5072153;28;20060;-56
2022/03/08 02:17:20;;;;;;;56.78;31.50;;;26.10;2201.60;;;;;;5071453;28;20036;-57
2022/03/08 02:19:46;;;;;;;69.22;37.50;;;26.20;2201.60;;;;;;5072096;28;20059;-57
2022/03/08 02:22:11;;;;;;;63.70;32.45;;;26.30;2201.60;;;;;;5071607;28;20029;-56
2022/03/08 02:24:37;;;;;;;55.10;30.83;;;26.30;2201.60;;;;;;5071923;28;20473;-60
2022/03/08 02:27:03;;;;;;;66.28;35.13;;;26.20;2201.60;;;;;;5071593;28;20024;-61
2022/03/08 02:29:29;;;;;;;72.90;38.28;;;26.10;2201.60;;;;;;5071682;28;20020;-57
2022/03/08 02:31:56;;;;;;;63.05;34.65;;;26.20;2201.60;;;;;;5071620;28;20162;-57
2022/03/08 02:34:22;;;;;;;57.70;27.73;;;26.40;2201.60;;;;;;5071363;28;20403;-56
2022/03/08 02:36:59;;;;;;;51.92;27.65;;;26.30;2201.60;;;;;;5071776;28;20098;-56
2022/03/08 02:39:25;;;;;;;44.92;24.63;;;26.20;2201.60;;;;;;5071395;28;20069;-56
2022/03/08 02:41:51;;;;;;;49.08;27.05;;;26.10;2201.60;;;;;;5071389;28;20050;-56
2022/03/08 02:44:16;;;;;;;52.08;27.98;;;26.10;2201.60;;;;;;5071779;28;20024;-60
2022/03/08 02:46:42;;;;;;;46.78;25.80;;;26.10;2201.60;;;;;;5071391;28;20078;-57
2022/03/08 02:49:08;;;;;;;43.58;23.25;;;26.20;2201.60;;;;;;5071362;28;20107;-56
2022/03/08 02:51:33;;;;;;;38.20;22.42;;;26.30;2201.60;;;;;;5071007;28;20127;-56
2022/03/08 02:53:59;;;;;;;33.45;22.45;;;26.40;2201.60;;;;;;5071276;28;20025;-56
2022/03/08 02:56:25;;;;;;;36.22;21.50;;;26.30;2201.60;;;;;;5071031;28;20052;-61
2022/03/08 02:58:51;;;;;;;39.38;24.13;;;26.40;2201.60;;;;;;5070778;28;20021;-57
2022/03/08 03:01:16;;;;;;;41.83;26.15;;;26.20;2201.60;;;;;;5071115;28;20028;-61
2022/03/08 03:03:42;;;;;;;45.92;26.77;;;26.00;2201.60;;;;;;5071035;28;20058;-57
2022/03/08 03:06:08;;;;;;;49.53;27.92;;;26.00;2201.60;;;;;;5071043;28;20027;-56
2022/03/08 03:08:33;;;;;;;50.75;28.67;;;26.10;2201.60;;;;;;5070748;28;20036;-57
2022/03/08 03:10:59;;;;;;;45.58;27.30;;;26.20;2201.60;;;;;;5070818;28;20029;-56
2022/03/08 03:13:25;;;;;;;47.97;27.33;;;26.30;2201.60;;;;;;5070995;28;20024;-57
2022/03/08 03:15:50;;;;;;;53.72;28.33;;;26.30;2201.60;;;;;;5070750;28;20052;-57
2022/03/08 03:18:16;;;;;;;54.17;31.77;;;26.20;2201.60;;;;;;5070494;28;20024;-59
2022/03/08 03:20:42;;;;;;;59.47;32.33;;;26.10;2201.60;;;;;;5070571;28;20027;-61
2022/03/08 03:23:08;;;;;;;59.33;31.63;;;26.10;2201.60;;;;;;5070866;28;20025;-57
2022/03/08 03:25:34;;;;;;;46.72;25.05;;;26.10;2201.60;;;;;;5070466;28;20371;-56
2022/03/08 03:27:59;;;;;;;44.22;26.40;;;26.20;2201.60;;;;;;5070553;28;20064;-57
2022/03/08 03:30:25;;;;;;;50.13;31.02;;;26.30;2201.60;;;;;;5070271;28;20080;-56
2022/03/08 03:32:51;;;;;;;49.22;28.25;;;26.20;2201.60;;;;;;5070353;28;20123;-57
2022/03/08 03:35:17;;;;;;;52.35;28.23;;;26.20;2201.60;;;;;;5070442;28;20035;-61
2022/03/08 03:37:43;;;;;;;68.07;36.42;;;26.10;2201.60;;;;;;5070184;28;20449;-57
2022/03/08 03:40:10;;;;;;;47.05;25.50;;;26.00;2201.60;;;;;;5070587;28;20032;-56
2022/03/08 03:42:36;;;;;;;51.63;27.00;;;26.10;2201.60;;;;;;5070352;28;20028;-56
2022/03/08 03:45:03;;;;;;;44.42;25.20;;;25.90;2201.60;;;;;;5070370;28;20108;-57
2022/03/08 03:47:29;;;;;;;55.72;28.50;;;26.10;2201.60;;;;;;5070524;28;20033;-56
2022/03/08 03:49:54;;;;;;;53.97;27.65;;;26.00;2201.60;;;;;;5069993;28;20078;-61
2022/03/08 03:52:20;;;;;;;55.97;31.80;;;26.10;2201.60;;;;;;5070368;28;20098;-57
2022/03/08 03:54:46;;;;;;;53.92;29.02;;;26.10;2201.60;;;;;;5070277;28;20029;-62
2022/03/08 03:57:12;;;;;;;56.63;29.52;;;25.80;2201.60;;;;;;5070044;28;20036;-57
2022/03/08 03:59:39;;;;;;;50.03;29.05;;;25.90;2201.60;;;;;;5070259;28;20025;-56
2022/03/08 04:02:05;;;;;;;55.72;29.02;;;25.70;2201.60;;;;;;5069994;28;20036;-56
2022/03/08 04:04:31;;;;;;;54.50;31.50;;;0.90;2201.60;;;;;;5069911;28;20024;-60
2022/03/08 04:06:56;;;;;;;54.17;29.90;;;25.60;2201.60;;;;;;5070111;28;20047;-56
2022/03/08 04:09:22;;;;;;;48.40;28.52;;;0.90;2201.60;;;;;;5069865;28;20020;-56
2022/03/08 04:11:48;;;;;;;54.40;29.88;;;25.60;2201.60;;;;;;5070138;28;20033;-57
2022/03/08 04:14:15;;;;;;;63.53;43.17;;;25.60;2201.60;;;;;;5069905;28;20033;-56
2022/03/08 04:16:41;;;;;;;57.33;33.33;;;25.70;2201.60;;;;;;5070221;28;20540;-61
2022/03/08 04:19:06;;;;;;;59.13;31.98;;;25.70;2201.60;;;;;;5070106;28;20432;-57
2022/03/08 04:21:32;;;;;;;59.45;32.60;;;25.70;2201.60;;;;;;5069554;28;20050;-57
2022/03/08 04:23:59;;;;;;;62.25;38.55;;;25.60;2201.60;;;;;;5070105;28;20033;-57
2022/03/08 04:26:25;;;;;;;57.45;33.38;;;0.90;2201.60;;;;;;5069688;28;20032;-56
2022/03/08 04:28:51;;;;;;;64.25;38.83;;;0.80;2201.60;;;;;;5070614;28;20564;-59
2022/03/08 04:31:17;;;;;;;62.78;36.17;;;0.80;2201.60;;;;;;5074012;28;20048;-61
2022/03/08 04:33:43;;;;;;;52.63;30.02;;;0.80;2201.60;;;;;;5073820;28;20367;-61
2022/03/08 04:36:08;;;;;;;52.17;31.00;;;0.90;2201.60;;;;;;5073993;28;20108;-57
2022/03/08 04:38:34;;;;;;;61.38;32.90;;;0.70;2201.60;;;;;;5073589;28;20043;-56
2022/03/08 04:41:02;;;;;;;51.28;29.85;;;0.60;2201.60;;;;;;5073796;28;20478;-56
2022/03/08 04:43:29;;;;;;;49.95;29.10;;;0.40;2201.60;;;;;;5074000;28;20064;-56
2022/03/08 04:45:55;;;;;;;52.92;32.58;;;0.60;2201.60;;;;;;5073722;28;20036;-61
2022/03/08 04:48:21;;;;;;;50.92;29.88;;;0.80;2201.60;;;;;;5073612;28;20028;-56
2022/03/08 04:50:46;;;;;;;51.90;29.27;;;0.70;2201.60;;;;;;5073810;28;20021;-61
2022/03/08 04:53:12;;;;;;;53.20;30.48;;;0.90;2201.60;;;;;;5073256;28;20550;-56
2022/03/08 04:55:38;;;;;;;59.35;36.95;;;0.70;2201.60;;;;;;5073534;28;20039;-55
2022/03/08 04:58:04;;;;;;;56.55;30.67;;;0.60;2201.60;;;;;;5073307;28;20028;-56
2022/03/08 05:00:29;;;;;;;54.88;32.22;;;0.60;2201.60;;;;;;5073526;28;20052;-57
2022/03/08 05:02:55;;;;;;;53.50;31.58;;;0.70;2201.60;;;;;;5073135;28;20060;-61
2022/03/08 05:05:21;;;;;;;58.78;39.65;;;0.60;2201.60;;;;;;5072912;28;20074;-61
2022/03/08 05:07:47;;;;;;;56.75;33.40;;;0.60;2201.60;;;;;;5073325;28;20112;-62
2022/03/08 05:10:13;;;;;;;53.97;32.40;;;0.50;2201.60;;;;;;5072882;28;20124;-56
2022/03/08 05:12:39;;;;;;;51.47;31.27;;;0.50;2201.60;;;;;;5072739;28;20033;-56
2022/03/08 05:15:06;;;;;;;57.42;30.08;;;0.60;2201.60;;;;;;5072887;28;20407;-62
2022/03/08 05:17:32;;;;;;;56.80;33.53;;;0.60;2201.60;;;;;;5072866;28;20033;-56
2022/03/08 05:19:58;;;;;;;55.33;34.65;;;0.60;2201.60;;;;;;5073164;28;20025;-57
2022/03/08 05:22:24;;;;;;;50.40;32.75;;;0.60;2201.60;;;;;;5072725;28;20021;-61
2022/03/08 05:24:49;;;;;;;60.38;37.10;;;0.70;2201.60;;;;;;5073059;28;20103;-56
2022/03/08 05:27:15;;;;;;;54.85;30.98;;;0.60;2201.60;;;;;;5072992;28;20107;-57
2022/03/08 05:29:41;;;;;;;56.53;31.63;;;0.90;2201.60;;;;;;5072485;28;20024;-57
2022/03/08 05:32:07;;;;;;;57.90;33.38;;;0.90;2201.60;;;;;;5071714;28;20040;-59
2022/03/08 05:34:34;;;;;;;52.25;29.23;;;25.60;2201.60;;;;;;5071346;28;20024;-57
2022/03/08 05:36:59;;;;;;;57.28;32.80;;;25.70;2201.60;;;;;;5072555;28;20482;-56
2022/03/08 05:39:26;;;;;;;53.38;31.88;;;25.60;2201.60;;;;;;5072307;28;20024;-56
2022/03/08 05:41:51;;;;;;;56.83;31.95;;;25.80;2201.60;;;;;;5072413;28;20076;-56
2022/03/08 05:44:17;;;;;;;58.03;31.35;;;25.70;2201.60;;;;;;5072493;28;20478;-60
2022/03/08 05:46:44;;;;;;;51.05;26.90;;;25.80;2201.60;;;;;;5072400;28;20024;-56
2022/03/08 05:49:09;;;;;;;53.40;29.92;;;25.80;2201.60;;;;;;5072574;28;20538;-60
2022/03/08 05:51:35;;;;;;;65.22;36.05;;;25.90;2201.60;;;;;;5072556;28;20128;-61
2022/03/08 05:54:01;;;;;;;55.45;31.77;;;25.80;2201.60;;;;;;5072208;28;20086;-56
2022/03/08 05:56:27;;;;;;;49.53;27.48;;;25.90;2201.60;;;;;;5072668;28;20063;-61
2022/03/08 05:58:53;;;;;;;65.13;37.20;;;25.90;2201.60;;;;;;5072290;28;20071;-57
2022/03/08 06:01:19;;;;;;;72.00;42.13;;;26.10;2201.60;;;;;;5072171;28;20020;-58
2022/03/08 06:03:44;;;;;;;61.38;34.28;;;26.20;2201.60;;;;;;5072467;28;20374;-56
2022/03/08 06:06:11;;;;;;;92.72;52.60;;;26.30;2201.60;;;;;;5072035;28;20024;-56
2022/03/08 06:08:37;;;;;;;73.07;42.80;;;26.30;2201.60;;;;;;5072280;28;20040;-60
2022/03/08 06:11:04;;;;;;;466.23;300.45;;;26.30;2201.60;;;;;;5071857;28;20103;-57
2022/03/08 06:13:29;;;;;;;65.57;41.20;;;26.30;2201.60;;;;;;5072100;28;20048;-56
2022/03/08 06:15:56;;;;;;;75.03;43.47;;;26.50;2201.60;;;;;;5071950;28;20052;-57
2022/03/08 06:18:21;;;;;;;50.92;26.92;;;26.40;2201.60;;;;;;5071949;28;20028;-57
2022/03/08 06:20:47;;;;;;;275.63;182.20;;;51.30;2227.20;;;;;;5072270;28;20029;-61
2022/03/08 06:23:13;;;;;;;163.65;97.40;;;26.50;2201.60;;;;;;5071924;28;20375;-61
2022/03/08 06:25:39;;;;;;;167.23;104.72;;;51.20;2227.20;;;;;;5071886;28;20032;-61
2022/03/08 06:28:04;;;;;;;309.85;244.75;;;51.20;2227.20;;;;;;5071807;28;20027;-60
2022/03/08 06:30:30;;;;;;;75.57;57.03;;;51.30;2227.20;;;;;;5071689;28;20568;-56
2022/03/08 06:32:56;;;;;;;41.00;25.63;;;51.30;2227.20;;;;;;5071798;28;20028;-66
2022/03/08 06:35:22;;;;;;;42.47;26.23;;;51.30;2227.20;;;;;;5071426;28;20066;-57
2022/03/08 06:37:48;;;;;;;60.33;37.90;;;51.40;2227.20;;;;;;5071793;28;20074;-58
2022/03/08 06:40:13;;;;;;;48.90;26.85;;;51.50;2227.20;;;;;;5071578;28;20052;-55
2022/03/08 06:42:39;;;;;;;47.65;27.60;;;51.40;2227.20;;;;;;5071696;28;20433;-54
2022/03/08 06:45:06;;;;;;;76.10;42.80;;;51.40;2227.20;;;;;;5071641;28;20013;-59
2022/03/08 06:47:32;;;;;;;41.40;24.38;;;51.70;2227.20;;;;;;5071425;28;20028;-56
2022/03/08 06:49:58;;;;;;;48.72;29.50;;;51.70;2227.20;;;;;;5071236;28;20021;-56
2022/03/08 06:52:24;;;;;;;68.55;48.28;;;51.40;2227.20;;;;;;5070373;28;20039;-59
2022/03/08 06:54:50;;;;;;;76.97;48.63;;;51.30;2227.20;;;;;;5071420;28;20466;-55
2022/03/08 06:57:16;;;;;;;57.03;37.63;;;51.60;2227.20;;;;;;5071497;28;20028;-55
2022/03/08 06:59:41;;;;;;;54.95;34.80;;;51.70;2227.20;;;;;;5071017;28;20412;-55
2022/03/08 07:02:08;;;;;;;46.70;30.00;;;51.90;2227.20;;;;;;5071056;28;20024;-59
2022/03/08 07:04:34;;;;;;;44.50;27.00;;;76.80;2227.20;;;;;;5071242;28;20028;-57
2022/03/08 07:06:59;;;;;;;40.17;24.40;;;76.90;2227.20;;;;;;5070948;28;20364;-55
2022/03/08 07:09:25;;;;;;;51.78;31.55;;;77.00;2227.20;;;;;;5071010;28;20075;-59
2022/03/08 07:11:52;;;;;;;43.53;29.92;;;77.40;2227.20;;;;;;5070903;28;20040;-63
2022/03/08 07:14:17;;;;;;;45.63;29.10;;;77.30;2227.20;;;;;;5071404;28;20390;-60
2022/03/08 07:16:45;;;;;;;40.90;25.88;;;77.30;2227.20;;;;;;5070599;28;20028;-59
2022/03/08 07:19:12;;;;;;;46.17;32.80;;;77.70;2227.20;;;;;;5070679;28;20058;-57
2022/03/08 07:21:38;;;;;;;43.20;28.83;;;77.60;2227.20;;;;;;5070657;28;20032;-55
2022/03/08 07:24:04;;;;;;;43.15;24.83;;;102.40;2227.20;;;;;;5070502;28;20032;-55
2022/03/08 07:26:30;;;;;;;39.78;25.13;;;102.40;2227.20;;;;;;5070780;28;20031;-56
2022/03/08 07:28:56;;;;;;;39.30;25.05;;;102.50;2227.20;;;;;;5070620;28;20083;-55
2022/03/08 07:31:22;;;;;;;40.13;23.50;;;102.80;2227.20;;;;;;5070113;28;20049;-56
2022/03/08 07:33:47;;;;;;;37.72;22.08;;;102.90;2227.20;;;;;;5070742;28;20082;-58
2022/03/08 07:36:13;;;;;;;37.78;25.08;;;103.00;2227.20;;;;;;5070395;28;20025;-55
2022/03/08 07:38:39;;;;;;;43.20;25.52;;;103.20;2227.20;;;;;;5070328;28;20032;-55
2022/03/08 07:41:05;;;;;;;33.15;21.38;;;103.10;2227.20;;;;;;5070439;28;20029;-55
2022/03/08 07:43:31;;;;;;;30.33;20.83;;;153.60;2252.80;;;;;;5070229;28;20021;-56
2022/03/08 07:45:57;;;;;;;36.35;22.83;;;179.60;2201.60;;;;;;5070464;28;20027;-56
2022/03/08 07:48:22;;;;;;;38.47;23.65;;;205.00;2048.00;;;;;;5070159;28;20025;-60
2022/03/08 07:50:48;;;;;;;34.50;23.83;;;205.00;2048.00;;;;;;5070637;28;20056;-55
2022/03/08 07:53:14;;;;;;;29.88;21.05;;;179.90;2022.40;;;;;;5070391;28;20459;-55
2022/03/08 07:55:39;;;;;;;35.22;23.33;;;179.60;2124.80;;;;;;5070378;28;20017;-58
2022/03/08 07:58:11;;;;;;;34.53;23.35;;;179.30;2099.20;;;;;;5070238;28;20355;-59
2022/03/08 08:00:37;;;;;;;33.13;21.63;;;179.40;2099.20;;;;;;5070311;28;20031;-59
2022/03/08 08:03:03;;;;;;;34.40;24.23;;;179.50;2073.60;;;;;;5069779;28;20060;-55
2022/03/08 08:05:29;;;;;;;37.78;24.38;;;179.50;2099.20;;;;;;5070005;28;20039;-55
2022/03/08 08:07:55;;;;;;;36.90;23.10;;;179.90;2048.00;;;;;;5069814;28;20040;-55
2022/03/08 08:10:21;;;;;;;33.50;22.48;;;179.70;2073.60;;;;;;5069941;28;20032;-56
2022/03/08 08:12:47;;;;;;;41.60;24.75;;;179.90;2073.60;;;;;;5070025;28;20548;-58
2022/03/08 08:15:13;;;;;;;44.08;23.63;;;204.90;2022.40;;;;;;5069877;28;20059;-55
2022/03/08 08:17:38;;;;;;;34.63;23.98;;;205.00;1996.80;;;;;;5069964;28;20025;-55
2022/03/08 08:20:05;;;;;;;34.80;24.95;;;205.10;1971.20;;;;;;5070060;28;20025;-55
2022/03/08 08:22:31;;;;;;;33.80;24.05;;;205.30;1945.60;;;;;;5069927;28;20037;-55
2022/03/08 08:24:56;;;;;;;39.53;27.52;;;230.70;1843.20;;;;;;5070099;28;20024;-57
2022/03/08 08:27:22;;;;;;;38.97;26.60;;;231.20;1817.60;;;;;;5069794;28;20032;-55
2022/03/08 08:29:48;;;;;;;32.88;25.77;;;256.50;1740.80;;;;;;5069827;28;20043;-55
2022/03/08 08:32:13;;;;;;;44.78;32.95;;;256.50;1689.60;;;;;;5069449;28;20036;-57
2022/03/08 08:34:39;;;;;;;35.38;26.25;;;256.10;1715.20;;;;;;5069787;28;20081;-55
2022/03/08 08:37:05;;;;;;;30.88;21.75;;;230.80;1792.00;;;;;;5069482;28;20036;-56
2022/03/08 08:39:31;;;;;;;30.85;23.50;;;205.60;1843.20;;;;;;5069725;28;20021;-55
2022/03/08 08:41:57;;;;;;;27.92;21.50;;;230.50;1792.00;;;;;;5069839;28;20101;-55
2022/03/08 08:44:25;;;;;;;31.17;22.25;;;230.60;1817.60;;;;;;5069557;28;20021;-57
2022/03/08 08:46:51;;;;;;;32.53;27.15;;;230.40;1817.60;;;;;;5069380;28;20036;-56
2022/03/08 08:49:18;;;;;;;32.65;22.52;;;205.70;1843.20;;;;;;5069734;28;20017;-56
2022/03/08 08:51:43;;;;;;;36.40;24.67;;;230.40;1817.60;;;;;;5069410;28;20038;-55
2022/03/08 08:54:09;;;;;;;31.15;22.38;;;205.70;1817.60;;;;;;5069661;28;20103;-55
2022/03/08 08:56:35;;;;;;;30.08;23.15;;;205.70;1843.20;;;;;;5069533;28;20021;-56
2022/03/08 08:59:04;;;;;;;32.50;23.75;;;230.60;1817.60;;;;;;5069521;28;20100;-56
2022/03/08 09:01:30;;;;;;;36.47;24.85;;;230.60;1817.60;;;;;;5069528;28;20116;-58
2022/03/08 09:03:56;;;;;;;31.25;22.45;;;205.60;1843.20;;;;;;5069199;28;20088;-56
2022/03/08 09:06:22;;;;;;;29.85;21.30;;;231.10;1766.40;;;;;;5069319;28;20024;-56
2022/03/08 09:08:48;;;;;;;37.08;27.23;;;231.30;1766.40;;;;;;5069549;28;20067;-55
2022/03/08 09:11:13;;;;;;;36.67;28.48;;;231.10;1792.00;;;;;;5069161;28;20052;-55
2022/03/08 09:13:39;;;;;;;43.70;31.00;;;231.10;1740.80;;;;;;5069421;28;20064;-57
2022/03/08 09:16:06;;;;;;;191.65;137.63;;;231.10;1766.40;;;;;;5071700;28;20427;-56
2022/03/08 09:18:32;;;;;;;48.03;36.60;;;230.50;1817.60;;;;;;5072814;28;20028;-56
2022/03/08 09:20:57;;;;;;;31.38;22.98;;;230.50;1817.60;;;;;;5073088;28;20377;-56
2022/03/08 09:23:23;;;;;;;40.35;27.65;;;230.60;1817.60;;;;;;5072705;28;20013;-58
2022/03/08 09:25:49;;;;;;;34.42;23.95;;;230.90;1817.60;;;;;;5072890;28;20020;-56
2022/03/08 09:28:15;;;;;;;34.38;22.17;;;230.40;1817.60;;;;;;5072701;28;20158;-56
2022/03/08 09:30:42;;;;;;;28.92;21.52;;;205.70;1817.60;;;;;;5072667;28;20048;-55
2022/03/08 09:33:08;;;;;;;37.75;22.75;;;205.60;1843.20;;;;;;5072810;28;20036;-56
2022/03/08 09:35:34;;;;;;;37.55;24.15;;;205.30;1868.80;;;;;;5072484;28;20027;-58
2022/03/08 09:38:01;;;;;;;45.83;31.70;;;205.40;1868.80;;;;;;5072689;28;20028;-56
2022/03/08 09:40:27;;;;;;;45.28;31.50;;;205.50;1868.80;;;;;;5073012;28;20020;-56
2022/03/08 09:42:53;;;;;;;53.83;35.95;;;205.60;1843.20;;;;;;5072598;28;20035;-56
2022/03/08 09:45:19;;;;;;;41.95;27.75;;;230.50;1817.60;;;;;;5072887;28;20025;-56
2022/03/08 09:47:45;;;;;;;49.47;31.98;;;205.60;1843.20;;;;;;5072599;28;20383;-56
2022/03/08 09:50:12;;;;;;;33.60;23.83;;;205.50;1868.80;;;;;;5071026;28;20036;-56
2022/03/08 09:52:41;;;;;;;36.92;24.30;;;205.10;1868.80;;;;;;5071513;28;20044;-56
2022/03/08 09:55:12;;;;;;;35.72;25.20;;;205.20;1920.00;;;;;;5072495;28;20466;-55
2022/03/08 09:57:38;;;;;;;32.63;22.90;;;205.30;1894.40;;;;;;5072411;28;20032;-55
2022/03/08 10:00:13;;;;;;;120.30;66.28;;;205.50;1868.80;;;;;;5072271;28;20021;-59
2022/03/08 10:02:56;;;;;;;44.47;29.65;;;230.60;1843.20;;;;;;5071106;28;20028;-56
2022/03/08 10:05:24;;;;;;;109.07;62.38;;;231.00;1843.20;;;;;;5071347;28;20058;-56
2022/03/08 10:08:10;;;;;;;156.95;91.72;;;;;;;;;;5072206;28;20117;-57
2022/03/08 10:10:44;;;;;;;45.70;33.47;;;;;;;;;;5071919;28;20490;-55
2022/03/08 10:13:11;;;;;;;41.47;28.70;;;205.40;1843.20;;;;;;5072002;28;20036;-56
2022/03/08 10:15:37;;;;;;;40.97;23.92;;;205.20;1894.40;;;;;;5070997;28;20108;-57
2022/03/08 10:18:03;;;;;;;39.17;27.45;;;204.90;1945.60;;;;;;5071935;28;20437;-56
2022/03/08 10:20:31;;;;;;;42.47;24.25;;;;;;;;;;5071781;28;20016;-55
2022/03/08 10:22:58;;;;;;;36.28;24.92;;;;;;;;;;5071989;28;20020;-55
2022/03/08 10:25:25;;;;;;;36.00;24.58;;;;;;;;;;5071590;28;20118;-57
2022/03/08 10:27:57;;;;;;;39.63;25.05;;;205.10;1920.00;;;;;;5070877;28;20477;-56
2022/03/08 10:30:50;;;;;;;39.00;26.75;;;205.10;1945.60;;;;;;5068103;28;20441;-57
2022/03/08 10:33:19;;;;;;;54.33;35.00;;;205.30;1971.20;;;;;;5067120;28;20040;-56
2022/03/08 10:35:47;;;;;;;44.88;29.75;;;205.20;1920.00;;;;;;5071123;28;20051;-55
2022/03/08 10:38:13;;;;;;;46.83;29.40;;;205.20;1920.00;;;;;;5070404;28;20418;-56
2022/03/08 10:40:41;;;;;;;50.95;33.67;;;205.30;1920.00;;;;;;5071421;28;20029;-56
2022/03/08 10:43:09;;;;;;;38.55;26.85;;;205.20;1945.60;;;;;;5070917;28;20425;-55
2022/03/08 10:45:39;;;;;;;35.75;26.83;;;205.20;1971.20;;;;;;5070630;28;20028;-56
2022/03/08 10:48:06;;;;;;;48.78;34.00;;;205.00;1996.80;;;;;;5070404;28;20383;-56
2022/03/08 10:50:34;;;;;;;73.57;44.78;;;204.90;1996.80;;;;;;5071070;28;20028;-56
2022/03/08 10:53:02;;;;;;;39.05;28.38;;;204.80;1996.80;;;;;;5071209;28;20041;-56
2022/03/08 10:55:31;;;;;;;44.72;28.35;;;204.80;2022.40;;;;;;5071273;28;20470;-57
2022/03/08 10:58:03;;;;;;;48.25;30.58;;;179.90;2022.40;;;;;;5071362;28;20352;-56
2022/03/08 11:00:33;;;;;;;41.20;27.83;;;180.00;2022.40;;;;;;5070552;28;20032;-57
2022/03/08 11:03:01;;;;;;;39.00;26.90;;;204.80;1971.20;;;;;;5070240;28;20033;-56
2022/03/08 11:05:33;;;;;;;40.45;27.95;;;179.80;1996.80;;;;;;5070940;28;20032;-57
2022/03/08 11:07:59;;;;;;;60.03;38.38;;;179.40;1996.80;;;;;;5070857;28;20433;-59
2022/03/08 11:10:27;;;;;;;44.65;30.85;;;;;;;;;;5070620;28;20025;-56
2022/03/08 11:12:54;;;;;;;46.38;33.53;;;;;;;;;;5069605;28;20502;-59
2022/03/08 11:15:21;;;;;;;57.80;39.83;;;;;;;;;;5069475;28;20020;-57
2022/03/08 11:17:49;;;;;;;52.88;36.85;;;;;;;;;;5069815;28;20036;-58
2022/03/08 11:20:20;;;;;;;39.92;26.00;;;;;;;;;;5069406;28;20033;-57
2022/03/08 11:22:47;;;;;;;44.58;29.45;;;;;;;;;;5069366;28;20032;-56
2022/03/08 11:25:16;;;;;;;42.88;28.92;;;;;;;;;;5069371;28;20033;-56
2022/03/08 11:27:42;;;;;;;36.38;23.77;;;;;;;;;;5066412;28;20058;-56
2022/03/08 11:30:11;;;;;;;33.47;23.67;;;;;;;;;;5069219;28;20494;-55
2022/03/08 11:32:46;;;;;;;44.22;27.80;;;;;;;;;;5069189;28;20032;-56
2022/03/08 11:35:23;;;;;;;47.05;30.38;;;;;;;;;;5067246;28;20055;-55
2022/03/08 11:37:50;;;;;;;42.00;29.85;;;;;;;;;;5066608;28;20032;-55
2022/03/08 11:40:20;;;;;;;46.58;30.23;;;;;;;;;;5069262;28;20024;-61
2022/03/08 11:42:47;;;;;;;44.92;31.42;;;;;;;;;;5066819;28;20020;-54
2022/03/08 11:45:18;;;;;;;35.85;25.88;;;;;;;;;;5069554;28;20021;-57
2022/03/08 11:47:53;;;;;;;34.78;23.98;;;;;;;;;;5069059;28;20028;-56
2022/03/08 11:50:22;;;;;;;32.35;26.27;;;;;;;;;;5070043;28;20020;-58
2022/03/08 11:53:07;;;;;;;32.42;22.50;;;;;;;;;;5067692;28;20493;-54
2022/03/08 11:55:47;;;;;;;49.28;30.25;;;;;;;;;;5064741;28;20359;-57
2022/03/08 11:58:16;;;;;;;36.60;25.40;;;;;;;;;;5068605;28;20494;-60
2022/03/08 12:00:45;;;;;;;40.35;24.58;;;;;;;;;;5067285;28;20016;-57
2022/03/08 12:03:18;;;;;;;41.53;32.10;;;;;;;;;;5070204;28;20021;-55
2022/03/08 12:05:44;;;;;;;37.83;25.25;;;;;;;;;;5069974;28;20445;-55
2022/03/08 12:08:23;;;;;;;36.92;23.58;;;;;;;;;;5069965;28;20060;-56
2022/03/08 12:10:50;;;;;;;62.63;51.35;;;;;;;;;;5070227;28;20024;-55
2022/03/08 12:13:16;;;;;;;34.33;22.17;;;;;;;;;;5070018;28;20032;-55
2022/03/08 12:16:01;;;;;;;31.63;20.17;;;;;;;;;;5069796;28;20027;-56